sensor_id;sensor_type;location;lat;lon;timestamp;pressure;altitude;pressure_sealevel;temperature;humidity
3082;BME280;1551;51.046;7.010;2022-11-15T00:02:17;100289.91;;;12.06;nan
3082;BME280;1551;51.046;7.010;2022-11-15T00:05:26;100269.47;;;12.03;nan
3082;BME280;1551;51.046;7.010;2022-11-15T00:08:34;100286.34;;;12.13;nan
3082;BME280;1551;51.046;7.010;2022-11-15T00:11:41;100278.59;;;12.16;nan
3082;BME280;1551;51.046;7.010;2022-11-15T00:14:49;100278.47;;;12.21;nan
3082;BME280;1551;51.046;7.010;2022-11-15T00:17:57;100290.38;;;12.23;nan
3082;BME280;1551;51.046;7.010;2022-11-15T00:21:08;100287.72;;;12.26;nan
3082;BME280;1551;51.046;7.010;2022-11-15T00:24:16;100266.44;;;12.23;nan
3082;BME280;1551;51.046;7.010;2022-11-15T00:27:24;100286.69;;;12.35;nan
3082;BME280;1551;51.046;7.010;2022-11-15T00:30:32;100289.16;;;12.39;nan
3082;BME280;1551;51.046;7.010;2022-11-15T00:33:42;100282.31;;;12.38;nan
3082;BME280;1551;51.046;7.010;2022-11-15T00:36:50;100281.16;;;12.50;nan
3082;BME280;1551;51.046;7.010;2022-11-15T00:39:58;100276.03;;;12.52;nan
3082;BME280;1551;51.046;7.010;2022-11-15T00:43:06;100284.41;;;12.58;nan
3082;BME280;1551;51.046;7.010;2022-11-15T00:46:14;100284.28;;;12.63;nan
3082;BME280;1551;51.046;7.010;2022-11-15T00:49:22;100279.09;;;12.66;nan
3082;BME280;1551;51.046;7.010;2022-11-15T00:52:30;100278.97;;;12.70;nan
3082;BME280;1551;51.046;7.010;2022-11-15T00:55:38;100272.03;;;12.74;nan
3082;BME280;1551;51.046;7.010;2022-11-15T00:58:46;100275.38;;;12.77;nan
3082;BME280;1551;51.046;7.010;2022-11-15T01:01:54;100279.59;;;12.78;nan
3082;BME280;1551;51.046;7.010;2022-11-15T01:05:02;100267.63;;;12.79;nan
3082;BME280;1551;51.046;7.010;2022-11-15T01:08:14;100270.00;;;12.86;nan
3082;BME280;1551;51.046;7.010;2022-11-15T01:11:22;100269.94;;;12.88;nan
3082;BME280;1551;51.046;7.010;2022-11-15T01:14:29;100267.38;;;12.88;nan
3082;BME280;1551;51.046;7.010;2022-11-15T01:17:37;100264.69;;;12.92;nan
3082;BME280;1551;51.046;7.010;2022-11-15T01:20:45;100265.47;;;12.94;nan
3082;BME280;1551;51.046;7.010;2022-11-15T01:23:54;100245.03;;;12.91;nan
3082;BME280;1551;51.046;7.010;2022-11-15T01:27:02;100257.69;;;12.97;nan
3082;BME280;1551;51.046;7.010;2022-11-15T01:30:10;100258.50;;;12.99;nan
3082;BME280;1551;51.046;7.010;2022-11-15T01:33:18;100258.50;;;12.99;nan
3082;BME280;1551;51.046;7.010;2022-11-15T01:36:26;100254.22;;;13.00;nan
3082;BME280;1551;51.046;7.010;2022-11-15T01:39:34;100249.00;;;13.01;nan
3082;BME280;1551;51.046;7.010;2022-11-15T01:42:42;100257.47;;;13.06;nan
3082;BME280;1551;51.046;7.010;2022-11-15T01:46:00;100247.25;;;13.03;nan
3082;BME280;1551;51.046;7.010;2022-11-15T01:49:17;100256.56;;;13.09;nan
3082;BME280;1551;51.046;7.010;2022-11-15T01:52:28;100252.22;;;13.11;nan
3082;BME280;1551;51.046;7.010;2022-11-15T01:55:38;100251.28;;;13.14;nan
3082;BME280;1551;51.046;7.010;2022-11-15T01:58:46;100245.34;;;13.12;nan
3082;BME280;1551;51.046;7.010;2022-11-15T02:01:54;100236.84;;;13.09;nan
3082;BME280;1551;51.046;7.010;2022-11-15T02:05:03;100243.56;;;13.15;nan
3082;BME280;1551;51.046;7.010;2022-11-15T02:08:11;100226.44;;;13.14;nan
3082;BME280;1551;51.046;7.010;2022-11-15T02:11:28;100223.69;;;13.20;nan
3082;BME280;1551;51.046;7.010;2022-11-15T02:14:38;100217.63;;;13.23;nan
3082;BME280;1551;51.046;7.010;2022-11-15T02:18:08;100211.56;;;13.25;nan
3082;BME280;1551;51.046;7.010;2022-11-15T02:21:28;100209.03;;;13.24;nan
3082;BME280;1551;51.046;7.010;2022-11-15T02:24:48;100216.75;;;13.24;nan
3082;BME280;1551;51.046;7.010;2022-11-15T02:28:16;100208.97;;;13.27;nan
3082;BME280;1551;51.046;7.010;2022-11-15T02:35:19;100196.19;;;13.24;nan
3082;BME280;1551;51.046;7.010;2022-11-15T02:38:54;100206.28;;;13.30;nan
3082;BME280;1551;51.046;7.010;2022-11-15T02:42:24;100207.97;;;13.31;nan
3082;BME280;1551;51.046;7.010;2022-11-15T02:46:00;100199.28;;;13.35;nan
3082;BME280;1551;51.046;7.010;2022-11-15T02:49:11;100190.72;;;13.34;nan
3082;BME280;1551;51.046;7.010;2022-11-15T02:52:22;100189.84;;;13.35;nan
3082;BME280;1551;51.046;7.010;2022-11-15T02:55:34;100183.06;;;13.33;nan
3082;BME280;1551;51.046;7.010;2022-11-15T03:12:37;100173.41;;;13.41;nan
3082;BME280;1551;51.046;7.010;2022-11-15T03:15:57;100169.06;;;13.43;nan
3082;BME280;1551;51.046;7.010;2022-11-15T03:22:39;100170.94;;;13.38;nan
3082;BME280;1551;51.046;7.010;2022-11-15T03:25:50;100180.19;;;13.43;nan
3082;BME280;1551;51.046;7.010;2022-11-15T03:29:04;100186.94;;;13.47;nan
3082;BME280;1551;51.046;7.010;2022-11-15T03:32:17;100172.28;;;13.49;nan
3082;BME280;1551;51.046;7.010;2022-11-15T03:35:36;100178.22;;;13.51;nan
3082;BME280;1551;51.046;7.010;2022-11-15T03:38:46;100171.44;;;13.49;nan
3082;BME280;1551;51.046;7.010;2022-11-15T03:42:06;100174.81;;;13.51;nan
3082;BME280;1551;51.046;7.010;2022-11-15T03:45:27;100170.66;;;13.47;nan
3082;BME280;1551;51.046;7.010;2022-11-15T03:48:43;100167.16;;;13.49;nan
3082;BME280;1551;51.046;7.010;2022-11-15T03:51:57;100161.13;;;13.50;nan
3082;BME280;1551;51.046;7.010;2022-11-15T03:55:07;100163.66;;;13.52;nan
3082;BME280;1551;51.046;7.010;2022-11-15T03:58:15;100165.44;;;13.50;nan
3082;BME280;1551;51.046;7.010;2022-11-15T04:01:23;100171.31;;;13.53;nan
3082;BME280;1551;51.046;7.010;2022-11-15T04:04:31;100160.22;;;13.51;nan
3082;BME280;1551;51.046;7.010;2022-11-15T04:07:39;100156.94;;;13.46;nan
3082;BME280;1551;51.046;7.010;2022-11-15T04:10:49;100158.66;;;13.47;nan
3082;BME280;1551;51.046;7.010;2022-11-15T04:13:57;100160.09;;;13.56;nan
3082;BME280;1551;51.046;7.010;2022-11-15T04:17:05;100160.09;;;13.56;nan
3082;BME280;1551;51.046;7.010;2022-11-15T04:23:42;100136.94;;;13.56;nan
3082;BME280;1551;51.046;7.010;2022-11-15T04:27:13;100157.44;;;13.59;nan
3082;BME280;1551;51.046;7.010;2022-11-15T04:30:23;100151.38;;;13.60;nan
3082;BME280;1551;51.046;7.010;2022-11-15T04:33:31;100139.34;;;13.62;nan
3082;BME280;1551;51.046;7.010;2022-11-15T04:36:39;100136.09;;;13.55;nan
3082;BME280;1551;51.046;7.010;2022-11-15T04:40:06;100144.72;;;13.54;nan
3082;BME280;1551;51.046;7.010;2022-11-15T04:43:14;100137.78;;;13.56;nan
3082;BME280;1551;51.046;7.010;2022-11-15T04:46:23;100140.94;;;13.64;nan
3082;BME280;1551;51.046;7.010;2022-11-15T04:49:32;100147.84;;;13.64;nan
3082;BME280;1551;51.046;7.010;2022-11-15T04:52:48;100142.69;;;13.64;nan
3082;BME280;1551;51.046;7.010;2022-11-15T04:55:57;100146.91;;;13.66;nan
3082;BME280;1551;51.046;7.010;2022-11-15T04:59:05;100129.06;;;13.62;nan
3082;BME280;1551;51.046;7.010;2022-11-15T05:02:13;100139.94;;;13.70;nan
3082;BME280;1551;51.046;7.010;2022-11-15T05:05:21;100132.41;;;13.64;nan
3082;BME280;1551;51.046;7.010;2022-11-15T05:08:29;100150.16;;;13.71;nan
3082;BME280;1551;51.046;7.010;2022-11-15T05:11:37;100155.28;;;13.71;nan
3082;BME280;1551;51.046;7.010;2022-11-15T05:14:45;100151.84;;;13.72;nan
3082;BME280;1551;51.046;7.010;2022-11-15T05:17:57;100145.84;;;13.72;nan
3082;BME280;1551;51.046;7.010;2022-11-15T05:21:07;100153.69;;;13.69;nan
3082;BME280;1551;51.046;7.010;2022-11-15T05:24:16;100158.88;;;13.67;nan
3082;BME280;1551;51.046;7.010;2022-11-15T05:27:23;100147.78;;;13.65;nan
3082;BME280;1551;51.046;7.010;2022-11-15T05:30:31;100150.41;;;13.64;nan
3082;BME280;1551;51.046;7.010;2022-11-15T05:33:39;100139.34;;;13.62;nan
3082;BME280;1551;51.046;7.010;2022-11-15T05:36:48;100157.88;;;13.71;nan
3082;BME280;1551;51.046;7.010;2022-11-15T05:39:56;100151.06;;;13.70;nan
3082;BME280;1551;51.046;7.010;2022-11-15T05:43:04;100150.16;;;13.71;nan
3082;BME280;1551;51.046;7.010;2022-11-15T05:46:13;100155.41;;;13.68;nan
3082;BME280;1551;51.046;7.010;2022-11-15T05:49:25;100135.94;;;13.61;nan
3082;BME280;1551;51.046;7.010;2022-11-15T05:52:36;100150.34;;;13.65;nan
3082;BME280;1551;51.046;7.010;2022-11-15T05:55:44;100148.63;;;13.66;nan
3082;BME280;1551;51.046;7.010;2022-11-15T05:58:56;100147.94;;;13.61;nan
3082;BME280;1551;51.046;7.010;2022-11-15T06:02:05;100155.00;;;13.54;nan
3082;BME280;1551;51.046;7.010;2022-11-15T06:05:13;100152.75;;;13.44;nan
3082;BME280;1551;51.046;7.010;2022-11-15T06:08:21;100147.16;;;13.31;nan
3082;BME280;1551;51.046;7.010;2022-11-15T06:11:28;100156.66;;;13.28;nan
3082;BME280;1551;51.046;7.010;2022-11-15T06:14:36;100162.03;;;13.20;nan
3082;BME280;1551;51.046;7.010;2022-11-15T06:17:44;100162.34;;;13.09;nan
3082;BME280;1551;51.046;7.010;2022-11-15T06:20:52;100167.59;;;13.05;nan
3082;BME280;1551;51.046;7.010;2022-11-15T06:24:00;100174.56;;;13.00;nan
3082;BME280;1551;51.046;7.010;2022-11-15T06:27:10;100175.56;;;12.94;nan
3082;BME280;1551;51.046;7.010;2022-11-15T06:30:19;100178.28;;;12.90;nan
3082;BME280;1551;51.046;7.010;2022-11-15T06:33:26;100185.22;;;12.86;nan
3082;BME280;1551;51.046;7.010;2022-11-15T06:36:35;100183.72;;;12.79;nan
3082;BME280;1551;51.046;7.010;2022-11-15T06:39:43;100193.94;;;12.81;nan
3082;BME280;1551;51.046;7.010;2022-11-15T06:42:57;100198.31;;;12.77;nan
3082;BME280;1551;51.046;7.010;2022-11-15T06:46:06;100196.69;;;12.75;nan
3082;BME280;1551;51.046;7.010;2022-11-15T06:49:14;100197.56;;;12.74;nan
3082;BME280;1551;51.046;7.010;2022-11-15T06:52:22;100195.03;;;12.72;nan
3082;BME280;1551;51.046;7.010;2022-11-15T06:55:30;100199.41;;;12.69;nan
3082;BME280;1551;51.046;7.010;2022-11-15T06:58:38;100195.31;;;12.62;nan
3082;BME280;1551;51.046;7.010;2022-11-15T07:01:45;100204.66;;;12.64;nan
3082;BME280;1551;51.046;7.010;2022-11-15T07:04:53;100209.78;;;12.64;nan
3082;BME280;1551;51.046;7.010;2022-11-15T07:08:02;100211.59;;;12.61;nan
3082;BME280;1551;51.046;7.010;2022-11-15T07:11:10;100212.47;;;12.60;nan
3082;BME280;1551;51.046;7.010;2022-11-15T07:14:18;100230.56;;;12.55;nan
3082;BME280;1551;51.046;7.010;2022-11-15T07:17:26;100228.06;;;12.54;nan
3082;BME280;1551;51.046;7.010;2022-11-15T07:20:33;100234.78;;;12.58;nan
3082;BME280;1551;51.046;7.010;2022-11-15T07:23:41;100226.34;;;12.53;nan
3082;BME280;1551;51.046;7.010;2022-11-15T07:26:49;100239.06;;;12.59;nan
3082;BME280;1551;51.046;7.010;2022-11-15T07:29:57;100243.34;;;12.58;nan
3082;BME280;1551;51.046;7.010;2022-11-15T07:33:05;100246.59;;;12.65;nan
3082;BME280;1551;51.046;7.010;2022-11-15T07:36:13;100244.88;;;12.65;nan
3082;BME280;1551;51.046;7.010;2022-11-15T07:39:21;100249.94;;;12.67;nan
3082;BME280;1551;51.046;7.010;2022-11-15T07:42:31;100247.38;;;12.68;nan
3082;BME280;1551;51.046;7.010;2022-11-15T07:45:58;100251.47;;;12.75;nan
3082;BME280;1551;51.046;7.010;2022-11-15T07:49:06;100252.88;;;12.85;nan
3082;BME280;1551;51.046;7.010;2022-11-15T07:52:14;100251.09;;;12.87;nan
3082;BME280;1551;51.046;7.010;2022-11-15T07:55:26;100257.78;;;12.94;nan
3082;BME280;1551;51.046;7.010;2022-11-15T07:58:35;100252.50;;;13.00;nan
3082;BME280;1551;51.046;7.010;2022-11-15T08:01:43;100252.31;;;13.08;nan
3082;BME280;1551;51.046;7.010;2022-11-15T08:04:51;100258.78;;;13.21;nan
3082;BME280;1551;51.046;7.010;2022-11-15T08:07:58;100248.88;;;13.38;nan
3082;BME280;1551;51.046;7.010;2022-11-15T08:11:06;100249.81;;;13.36;nan
3082;BME280;1551;51.046;7.010;2022-11-15T08:14:14;100251.59;;;13.34;nan
3082;BME280;1551;51.046;7.010;2022-11-15T08:17:25;100254.91;;;13.37;nan
3082;BME280;1551;51.046;7.010;2022-11-15T08:20:33;100253.13;;;13.39;nan
3082;BME280;1551;51.046;7.010;2022-11-15T08:23:41;100250.66;;;13.36;nan
3082;BME280;1551;51.046;7.010;2022-11-15T08:26:49;100249.50;;;13.46;nan
3082;BME280;1551;51.046;7.010;2022-11-15T08:29:57;100250.22;;;13.51;nan
3082;BME280;1551;51.046;7.010;2022-11-15T08:33:05;100250.00;;;13.59;nan
3082;BME280;1551;51.046;7.010;2022-11-15T08:36:15;100241.34;;;13.61;nan
3082;BME280;1551;51.046;7.010;2022-11-15T08:39:24;100245.09;;;13.79;nan
3082;BME280;1551;51.046;7.010;2022-11-15T08:42:32;100241.44;;;13.86;nan
3082;BME280;1551;51.046;7.010;2022-11-15T08:45:40;100247.22;;;13.93;nan
3082;BME280;1551;51.046;7.010;2022-11-15T08:48:48;100223.19;;;13.94;nan
3082;BME280;1551;51.046;7.010;2022-11-15T08:51:56;100231.97;;;14.14;nan
3082;BME280;1551;51.046;7.010;2022-11-15T08:55:04;100234.09;;;14.56;nan
3082;BME280;1551;51.046;7.010;2022-11-15T08:58:13;100230.50;;;14.84;nan
3082;BME280;1551;51.046;7.010;2022-11-15T09:01:21;100214.44;;;15.24;nan
3082;BME280;1551;51.046;7.010;2022-11-15T09:04:29;100232.81;;;15.38;nan
3082;BME280;1551;51.046;7.010;2022-11-15T09:07:37;100221.97;;;15.30;nan
3082;BME280;1551;51.046;7.010;2022-11-15T09:10:45;100220.56;;;15.68;nan
3082;BME280;1551;51.046;7.010;2022-11-15T09:13:53;100206.28;;;16.03;nan
3082;BME280;1551;51.046;7.010;2022-11-15T09:17:01;100195.88;;;16.04;nan
3082;BME280;1551;51.046;7.010;2022-11-15T09:20:09;100198.25;;;15.89;nan
3082;BME280;1551;51.046;7.010;2022-11-15T09:23:18;100215.28;;;15.93;nan
3082;BME280;1551;51.046;7.010;2022-11-15T09:26:26;100203.97;;;16.59;nan
3082;BME280;1551;51.046;7.010;2022-11-15T09:29:33;100207.03;;;17.26;nan
3082;BME280;1551;51.046;7.010;2022-11-15T09:32:41;100209.16;;;18.09;nan
3082;BME280;1551;51.046;7.010;2022-11-15T09:35:49;100212.59;;;18.44;nan
3082;BME280;1551;51.046;7.010;2022-11-15T09:38:58;100211.31;;;18.52;nan
3082;BME280;1551;51.046;7.010;2022-11-15T09:45:57;100199.97;;;18.55;nan
3082;BME280;1551;51.046;7.010;2022-11-15T09:49:09;100183.78;;;18.67;nan
3082;BME280;1551;51.046;7.010;2022-11-15T09:52:14;100193.66;;;18.61;nan
3082;BME280;1551;51.046;7.010;2022-11-15T09:55:04;100176.53;;;18.74;nan
3082;BME280;1551;51.046;7.010;2022-11-15T09:57:58;100168.69;;;18.75;nan
3082;BME280;1551;51.046;7.010;2022-11-15T10:00:51;100172.78;;;18.79;nan
3082;BME280;1551;51.046;7.010;2022-11-15T10:03:41;100163.38;;;18.27;nan
3082;BME280;1551;51.046;7.010;2022-11-15T10:06:32;100154.53;;;17.97;nan
3082;BME280;1551;51.046;7.010;2022-11-15T10:09:30;100149.72;;;17.89;nan
3082;BME280;1551;51.046;7.010;2022-11-15T10:12:22;100143.59;;;18.76;nan
3082;BME280;1551;51.046;7.010;2022-11-15T10:15:16;100135.06;;;19.69;nan
3082;BME280;1551;51.046;7.010;2022-11-15T10:18:24;100133.44;;;20.41;nan
3082;BME280;1551;51.046;7.010;2022-11-15T10:21:24;100132.31;;;20.88;nan
3082;BME280;1551;51.046;7.010;2022-11-15T10:24:19;100122.00;;;20.44;nan
3082;BME280;1551;51.046;7.010;2022-11-15T10:27:12;100118.41;;;20.75;nan
3082;BME280;1551;51.046;7.010;2022-11-15T10:30:03;100117.38;;;20.63;nan
3082;BME280;1551;51.046;7.010;2022-11-15T10:32:53;100120.91;;;20.76;nan
3082;BME280;1551;51.046;7.010;2022-11-15T10:35:42;100129.47;;;21.47;nan
3082;BME280;1551;51.046;7.010;2022-11-15T10:38:31;100125.50;;;22.20;nan
3082;BME280;1551;51.046;7.010;2022-11-15T10:44:19;100112.72;;;22.68;nan
3082;BME280;1551;51.046;7.010;2022-11-15T10:47:24;100105.91;;;21.75;nan
3082;BME280;1551;51.046;7.010;2022-11-15T10:50:30;100113.34;;;21.28;nan
3082;BME280;1551;51.046;7.010;2022-11-15T10:53:40;100106.41;;;21.68;nan
3082;BME280;1551;51.046;7.010;2022-11-15T10:56:32;100107.06;;;22.48;nan
3082;BME280;1551;51.046;7.010;2022-11-15T10:59:30;100096.84;;;23.56;nan
3082;BME280;1551;51.046;7.010;2022-11-15T11:02:31;100097.06;;;23.53;nan
3082;BME280;1551;51.046;7.010;2022-11-15T11:08:23;100078.81;;;23.40;nan
3082;BME280;1551;51.046;7.010;2022-11-15T11:11:13;100091.41;;;24.62;nan
3082;BME280;1551;51.046;7.010;2022-11-15T11:14:12;100085.84;;;24.77;nan
3082;BME280;1551;51.046;7.010;2022-11-15T11:32:49;100064.41;;;20.92;nan
3082;BME280;1551;51.046;7.010;2022-11-15T11:42:35;100044.03;;;20.44;nan
3082;BME280;1551;51.046;7.010;2022-11-15T11:48:40;100062.75;;;19.91;nan
3082;BME280;1551;51.046;7.010;2022-11-15T11:51:38;100035.94;;;19.00;nan
3082;BME280;1551;51.046;7.010;2022-11-15T11:54:37;100025.75;;;18.33;nan
3082;BME280;1551;51.046;7.010;2022-11-15T11:57:49;100030.16;;;19.26;nan
3082;BME280;1551;51.046;7.010;2022-11-15T12:00:59;100032.66;;;20.73;nan
3082;BME280;1551;51.046;7.010;2022-11-15T12:03:58;100042.84;;;21.70;nan
3082;BME280;1551;51.046;7.010;2022-11-15T12:06:52;100037.78;;;21.42;nan
3082;BME280;1551;51.046;7.010;2022-11-15T12:09:58;100028.72;;;22.37;nan
3082;BME280;1551;51.046;7.010;2022-11-15T12:12:58;100029.03;;;24.00;nan
3082;BME280;1551;51.046;7.010;2022-11-15T12:15:55;100026.72;;;23.26;nan
3082;BME280;1551;51.046;7.010;2022-11-15T12:18:49;100015.19;;;23.76;nan
3082;BME280;1551;51.046;7.010;2022-11-15T12:22:10;100013.41;;;25.41;nan
3082;BME280;1551;51.046;7.010;2022-11-15T12:25:21;100000.81;;;25.03;nan
3082;BME280;1551;51.046;7.010;2022-11-15T12:37:46;99978.84;;;21.66;nan
3082;BME280;1551;51.046;7.010;2022-11-15T12:41:28;99977.09;;;21.54;nan
3082;BME280;1551;51.046;7.010;2022-11-15T12:47:32;99953.16;;;20.69;nan
3082;BME280;1551;51.046;7.010;2022-11-15T12:53:42;99922.41;;;20.21;nan
3082;BME280;1551;51.046;7.010;2022-11-15T12:56:31;99932.56;;;19.53;nan
3082;BME280;1551;51.046;7.010;2022-11-15T12:59:59;99932.38;;;19.12;nan
3082;BME280;1551;51.046;7.010;2022-11-15T13:03:18;99925.28;;;19.00;nan
3082;BME280;1551;51.046;7.010;2022-11-15T13:06:09;99912.69;;;18.63;nan
3082;BME280;1551;51.046;7.010;2022-11-15T13:08:58;99901.81;;;18.72;nan
3082;BME280;1551;51.046;7.010;2022-11-15T13:11:49;99899.16;;;18.58;nan
3082;BME280;1551;51.046;7.010;2022-11-15T13:14:45;99885.91;;;18.16;nan
3082;BME280;1551;51.046;7.010;2022-11-15T13:20:33;99895.91;;;17.58;nan
3082;BME280;1551;51.046;7.010;2022-11-15T13:23:22;99877.03;;;17.39;nan
3082;BME280;1551;51.046;7.010;2022-11-15T13:26:14;99892.94;;;17.31;nan
3082;BME280;1551;51.046;7.010;2022-11-15T13:29:15;99873.78;;;17.18;nan
3082;BME280;1551;51.046;7.010;2022-11-15T13:32:11;99880.00;;;17.14;nan
3082;BME280;1551;51.046;7.010;2022-11-15T13:35:06;99885.25;;;17.12;nan
3082;BME280;1551;51.046;7.010;2022-11-15T13:37:56;99884.25;;;16.98;nan
3082;BME280;1551;51.046;7.010;2022-11-15T13:40:46;99868.53;;;16.85;nan
3082;BME280;1551;51.046;7.010;2022-11-15T13:43:35;99869.88;;;16.75;nan
3082;BME280;1551;51.046;7.010;2022-11-15T13:46:26;99870.09;;;16.71;nan
3082;BME280;1551;51.046;7.010;2022-11-15T13:49:16;99857.28;;;16.69;nan
3082;BME280;1551;51.046;7.010;2022-11-15T13:52:07;99851.31;;;16.67;nan
3082;BME280;1551;51.046;7.010;2022-11-15T13:55:18;99831.59;;;16.47;nan
3082;BME280;1551;51.046;7.010;2022-11-15T13:58:10;99843.75;;;16.45;nan
3082;BME280;1551;51.046;7.010;2022-11-15T14:01:04;99843.88;;;16.42;nan
3082;BME280;1551;51.046;7.010;2022-11-15T14:03:56;99834.44;;;16.41;nan
3082;BME280;1551;51.046;7.010;2022-11-15T14:06:49;99822.19;;;16.28;nan
3082;BME280;1551;51.046;7.010;2022-11-15T14:09:40;99825.75;;;16.25;nan
3082;BME280;1551;51.046;7.010;2022-11-15T14:12:31;99820.81;;;16.21;nan
3082;BME280;1551;51.046;7.010;2022-11-15T14:15:35;99804.88;;;16.30;nan
3082;BME280;1551;51.046;7.010;2022-11-15T14:18:44;99805.22;;;16.22;nan
3082;BME280;1551;51.046;7.010;2022-11-15T14:21:33;99800.25;;;16.19;nan
3082;BME280;1551;51.046;7.010;2022-11-15T14:24:22;99783.59;;;16.08;nan
3082;BME280;1551;51.046;7.010;2022-11-15T14:27:28;99794.53;;;16.13;nan
3082;BME280;1551;51.046;7.010;2022-11-15T14:30:17;99779.19;;;16.10;nan
3082;BME280;1551;51.046;7.010;2022-11-15T14:36:19;99770.13;;;16.01;nan
3082;BME280;1551;51.046;7.010;2022-11-15T14:39:08;99767.69;;;15.98;nan
3082;BME280;1551;51.046;7.010;2022-11-15T14:41:58;99764.56;;;15.92;nan
3082;BME280;1551;51.046;7.010;2022-11-15T14:44:47;99749.00;;;15.93;nan
3082;BME280;1551;51.046;7.010;2022-11-15T14:47:36;99757.84;;;15.88;nan
3082;BME280;1551;51.046;7.010;2022-11-15T14:50:25;99767.28;;;15.89;nan
3082;BME280;1551;51.046;7.010;2022-11-15T14:53:16;99761.97;;;15.92;nan
3082;BME280;1551;51.046;7.010;2022-11-15T14:56:06;99757.81;;;15.89;nan
3082;BME280;1551;51.046;7.010;2022-11-15T14:58:54;99754.50;;;15.86;nan
3082;BME280;1551;51.046;7.010;2022-11-15T15:01:44;99748.38;;;15.88;nan
3082;BME280;1551;51.046;7.010;2022-11-15T15:04:33;99738.88;;;15.89;nan
3082;BME280;1551;51.046;7.010;2022-11-15T15:07:22;99731.72;;;15.76;nan
3082;BME280;1551;51.046;7.010;2022-11-15T15:10:12;99723.56;;;15.67;nan
3082;BME280;1551;51.046;7.010;2022-11-15T15:13:03;99711.84;;;15.60;nan
3082;BME280;1551;51.046;7.010;2022-11-15T15:15:52;99711.09;;;15.58;nan
3082;BME280;1551;51.046;7.010;2022-11-15T15:18:41;99703.44;;;15.56;nan
3082;BME280;1551;51.046;7.010;2022-11-15T15:21:30;99701.00;;;15.53;nan
3082;BME280;1551;51.046;7.010;2022-11-15T15:24:22;99697.09;;;15.45;nan
3082;BME280;1551;51.046;7.010;2022-11-15T15:27:11;99687.03;;;15.39;nan
3082;BME280;1551;51.046;7.010;2022-11-15T15:30:00;99683.47;;;15.41;nan
3082;BME280;1551;51.046;7.010;2022-11-15T15:32:49;99676.38;;;15.28;nan
3082;BME280;1551;51.046;7.010;2022-11-15T15:35:38;99673.78;;;15.28;nan
3082;BME280;1551;51.046;7.010;2022-11-15T15:38:27;99678.03;;;15.29;nan
3082;BME280;1551;51.046;7.010;2022-11-15T15:41:16;99675.53;;;15.27;nan
3082;BME280;1551;51.046;7.010;2022-11-15T15:44:06;99670.44;;;15.26;nan
3082;BME280;1551;51.046;7.010;2022-11-15T15:46:55;99669.53;;;15.27;nan
3082;BME280;1551;51.046;7.010;2022-11-15T15:49:47;99665.28;;;15.26;nan
3082;BME280;1551;51.046;7.010;2022-11-15T15:52:36;99662.63;;;15.27;nan
3082;BME280;1551;51.046;7.010;2022-11-15T15:55:25;99662.63;;;15.27;nan
3082;BME280;1551;51.046;7.010;2022-11-15T15:58:15;99670.38;;;15.27;nan
3082;BME280;1551;51.046;7.010;2022-11-15T16:01:04;99665.28;;;15.26;nan
3082;BME280;1551;51.046;7.010;2022-11-15T16:03:53;99661.88;;;15.25;nan
3082;BME280;1551;51.046;7.010;2022-11-15T16:06:43;99659.59;;;15.19;nan
3082;BME280;1551;51.046;7.010;2022-11-15T16:09:33;99653.72;;;15.15;nan
3082;BME280;1551;51.046;7.010;2022-11-15T16:12:40;99651.34;;;15.11;nan
3082;BME280;1551;51.046;7.010;2022-11-15T16:15:30;99652.13;;;15.13;nan
3082;BME280;1551;51.046;7.010;2022-11-15T16:18:20;99649.41;;;15.16;nan
3082;BME280;1551;51.046;7.010;2022-11-15T16:21:09;99646.81;;;15.16;nan
3082;BME280;1551;51.046;7.010;2022-11-15T16:23:58;99634.06;;;15.13;nan
3082;BME280;1551;51.046;7.010;2022-11-15T16:26:50;99638.25;;;15.15;nan
3082;BME280;1551;51.046;7.010;2022-11-15T16:29:39;99644.25;;;15.16;nan
3082;BME280;1551;51.046;7.010;2022-11-15T16:32:28;99644.13;;;15.19;nan
3082;BME280;1551;51.046;7.010;2022-11-15T16:35:17;99639.16;;;15.14;nan
3082;BME280;1551;51.046;7.010;2022-11-15T16:38:13;99638.34;;;15.14;nan
3082;BME280;1551;51.046;7.010;2022-11-15T16:41:03;99638.38;;;15.12;nan
3082;BME280;1551;51.046;7.010;2022-11-15T16:43:51;99634.72;;;15.18;nan
3082;BME280;1551;51.046;7.010;2022-11-15T16:46:41;99634.78;;;15.17;nan
3082;BME280;1551;51.046;7.010;2022-11-15T16:49:31;99635.00;;;15.12;nan
3082;BME280;1551;51.046;7.010;2022-11-15T16:52:20;99630.41;;;15.19;nan
3082;BME280;1551;51.046;7.010;2022-11-15T16:55:09;99627.81;;;15.19;nan
3082;BME280;1551;51.046;7.010;2022-11-15T16:57:58;99633.19;;;15.14;nan
3082;BME280;1551;51.046;7.010;2022-11-15T17:00:54;99637.56;;;15.12;nan
3082;BME280;1551;51.046;7.010;2022-11-15T17:03:44;99639.16;;;15.14;nan
3082;BME280;1551;51.046;7.010;2022-11-15T17:06:34;99609.34;;;15.09;nan
3082;BME280;1551;51.046;7.010;2022-11-15T17:09:22;99619.59;;;15.10;nan
3082;BME280;1551;51.046;7.010;2022-11-15T17:12:12;99604.34;;;15.06;nan
3082;BME280;1551;51.046;7.010;2022-11-15T17:15:03;99620.34;;;15.12;nan
3082;BME280;1551;51.046;7.010;2022-11-15T17:17:53;99612.69;;;15.11;nan
3082;BME280;1551;51.046;7.010;2022-11-15T17:20:42;99611.63;;;15.15;nan
3082;BME280;1551;51.046;7.010;2022-11-15T17:23:32;99625.28;;;15.17;nan
3082;BME280;1551;51.046;7.010;2022-11-15T17:26:22;99616.66;;;15.18;nan
3082;BME280;1551;51.046;7.010;2022-11-15T17:29:11;99622.72;;;15.17;nan
3082;BME280;1551;51.046;7.010;2022-11-15T17:32:00;99627.19;;;15.13;nan
3082;BME280;1551;51.046;7.010;2022-11-15T17:34:49;99620.44;;;15.11;nan
3082;BME280;1551;51.046;7.010;2022-11-15T17:37:38;99616.88;;;15.13;nan
3082;BME280;1551;51.046;7.010;2022-11-15T17:40:27;99622.13;;;15.12;nan
3082;BME280;1551;51.046;7.010;2022-11-15T17:43:16;99624.59;;;15.13;nan
3082;BME280;1551;51.046;7.010;2022-11-15T17:46:07;99585.97;;;14.95;nan
3082;BME280;1551;51.046;7.010;2022-11-15T17:48:56;99627.94;;;15.15;nan
3082;BME280;1551;51.046;7.010;2022-11-15T17:51:46;99628.38;;;15.06;nan
3082;BME280;1551;51.046;7.010;2022-11-15T17:54:35;99625.78;;;15.06;nan
3082;BME280;1551;51.046;7.010;2022-11-15T17:57:24;99618.19;;;15.03;nan
3082;BME280;1551;51.046;7.010;2022-11-15T18:00:13;99620.84;;;15.02;nan
3082;BME280;1551;51.046;7.010;2022-11-15T18:03:02;99615.19;;;14.94;nan
3082;BME280;1551;51.046;7.010;2022-11-15T18:05:51;99616.13;;;14.93;nan
3082;BME280;1551;51.046;7.010;2022-11-15T18:08:42;99611.00;;;14.91;nan
3082;BME280;1551;51.046;7.010;2022-11-15T18:11:37;99606.06;;;14.87;nan
3082;BME280;1551;51.046;7.010;2022-11-15T18:14:27;99605.38;;;14.83;nan